createdAt,value
2022-11-14T04:07:31.322Z,19.40
2022-11-14T05:26:21.947Z,15.10
2022-11-14T05:32:16.541Z,16.23
2022-11-14T05:34:45.629Z,16.97
2022-11-14T05:37:13.568Z,15.50
2022-11-14T05:39:40.111Z,16.27
2022-11-14T05:42:06.764Z,15.90
2022-11-14T05:44:33.524Z,15.80
2022-11-14T05:47:00.084Z,15.50
2022-11-14T05:49:26.589Z,13.53
2022-11-14T05:51:53.130Z,12.97
2022-11-14T05:54:19.665Z,14.23
2022-11-14T05:56:46.191Z,12.80
2022-11-14T05:59:12.754Z,12.53
2022-11-14T06:01:39.399Z,12.33
2022-11-14T06:04:06.104Z,13.50
2022-11-14T06:06:35.135Z,15.47
2022-11-14T06:09:01.748Z,13.27
2022-11-14T06:11:28.350Z,14.83
2022-11-14T06:13:55.011Z,12.93
2022-11-14T06:16:21.647Z,14.47
2022-11-14T06:18:51.054Z,16.13
2022-11-14T06:21:21.502Z,13.73
2022-11-14T06:23:48.210Z,14.33
2022-11-14T06:26:33.005Z,14.03
2022-11-14T06:28:59.646Z,13.67
2022-11-14T06:31:26.395Z,13.50
2022-11-14T06:33:52.941Z,13.93
2022-11-14T06:36:19.432Z,15.60
2022-11-14T06:38:48.696Z,13.90
2022-11-14T06:41:16.374Z,14.63
2022-11-14T06:46:33.395Z,16.03
2022-11-14T06:49:02.290Z,14.30
2022-11-14T06:52:00.794Z,17.70
2022-11-14T06:54:27.369Z,14.83
2022-11-14T06:56:53.980Z,15.33
2022-11-14T06:59:20.462Z,15.60
2022-11-14T07:01:46.995Z,15.50
2022-11-14T07:04:16.014Z,16.10
2022-11-14T07:06:42.665Z,14.67
2022-11-14T07:09:09.909Z,14.80
2022-11-14T07:11:36.552Z,15.67
2022-11-14T07:14:03.150Z,15.30
2022-11-14T07:16:32.733Z,16.10
2022-11-14T07:19:02.500Z,15.67
2022-11-14T07:53:51.924Z,15.17
2022-11-14T08:19:59.915Z,15.73
2022-11-14T08:22:35.598Z,16.10
2022-11-14T08:42:44.048Z,14.20
2022-11-14T10:04:14.511Z,18.53
2022-11-14T10:25:44.339Z,17.87
2022-11-14T10:36:09.332Z,19.47
2022-11-14T10:44:08.252Z,18.17
2022-11-14T10:46:38.891Z,18.20
2022-11-14T10:49:13.848Z,20.20
2022-11-14T10:51:41.764Z,19.73
2022-11-14T10:54:18.861Z,18.63
2022-11-14T10:56:52.030Z,17.50
2022-11-14T11:05:00.005Z,18.60
2022-11-14T11:12:56.906Z,21.63
2022-11-14T11:15:33.221Z,21.30
2022-11-14T11:20:47.176Z,19.77
2022-11-14T11:29:38.029Z,19.53
2022-11-14T11:40:46.565Z,22.20
2022-11-14T11:43:41.326Z,21.50
2022-11-14T11:46:21.967Z,21.70
2022-11-14T11:48:49.519Z,21.07
2022-11-14T11:59:37.655Z,24.07
2022-11-14T12:02:16.253Z,24.23
2022-11-14T12:04:45.555Z,23.33
2022-11-14T12:36:17.728Z,22.97
2022-11-14T12:41:30.935Z,24.17
2022-11-14T12:44:25.641Z,24.10
2022-11-14T12:55:01.481Z,22.57
2022-11-14T12:57:49.946Z,23.50
2022-11-14T13:00:16.740Z,22.87
2022-11-14T13:02:43.316Z,23.30
2022-11-14T13:10:29.233Z,24.43
2022-11-14T13:13:36.226Z,25.37
2022-11-14T13:19:12.985Z,27.23
2022-11-14T13:24:50.391Z,27.13
2022-11-14T13:27:34.189Z,27.53
2022-11-14T17:41:55.110Z,28.75
2022-11-14T18:04:53.466Z,31.07
2022-11-14T18:30:41.368Z,31.73
2022-11-14T18:33:09.460Z,31.50
2022-11-14T19:18:38.973Z,28.93
2022-11-14T19:29:48.776Z,29.60
2022-11-14T19:37:41.335Z,30.37
2022-11-14T19:40:10.700Z,30.77
2022-11-14T19:42:39.202Z,28.33
2022-11-14T19:45:06.031Z,27.63
2022-11-14T19:47:32.532Z,28.50
2022-11-14T19:49:59.023Z,30.40
2022-11-14T19:52:25.574Z,28.87
2022-11-14T19:54:52.720Z,29.23
2022-11-14T19:57:19.288Z,28.77
2022-11-14T19:59:45.802Z,29.47
2022-11-14T20:02:12.892Z,28.90
2022-11-14T20:04:39.387Z,27.53
2022-11-14T20:07:06.061Z,28.23
2022-11-14T20:09:32.588Z,27.90
2022-11-14T20:11:59.245Z,26.57
2022-11-14T20:14:25.738Z,28.23
2022-11-14T20:16:52.249Z,29.60
2022-11-14T20:19:18.800Z,28.73
2022-11-14T20:21:45.278Z,25.47
2022-11-14T20:24:12.891Z,27.13
2022-11-14T20:26:43.025Z,25.70
2022-11-14T20:32:03.659Z,26.93
2022-11-14T20:34:33.139Z,26.33
2022-11-14T20:37:11.019Z,26.93
2022-11-14T20:39:38.694Z,26.30
2022-11-14T20:42:08.520Z,25.37
2022-11-14T20:49:53.208Z,23.73
2022-11-14T20:52:19.842Z,25.17
2022-11-14T20:54:51.373Z,25.83
2022-11-14T20:57:18.202Z,23.87
2022-11-14T20:59:44.878Z,25.00
2022-11-14T21:02:15.142Z,25.47
2022-11-14T21:04:42.226Z,25.87
2022-11-14T21:07:10.937Z,25.20
2022-11-14T21:09:39.177Z,26.77
2022-11-14T21:12:17.297Z,27.03
2022-11-14T21:14:49.521Z,26.20
2022-11-14T21:17:36.928Z,25.47
2022-11-14T21:20:09.207Z,25.00
2022-11-14T21:22:35.939Z,26.47
2022-11-14T21:25:12.803Z,26.57
2022-11-14T21:27:41.934Z,24.97
2022-11-14T21:30:11.680Z,24.70
2022-11-14T21:32:41.054Z,22.80
2022-11-14T21:35:09.828Z,25.60
2022-11-14T21:37:36.854Z,25.50
2022-11-14T21:40:04.909Z,24.80
2022-11-14T21:42:31.607Z,25.93
2022-11-14T21:45:00.713Z,25.30
2022-11-14T21:47:27.428Z,25.63
2022-11-14T21:50:00.927Z,24.30
2022-11-14T21:52:29.015Z,28.30
2022-11-14T21:54:55.789Z,27.43
2022-11-14T21:57:25.089Z,24.27
2022-11-14T21:59:54.341Z,25.47
2022-11-14T22:02:39.664Z,26.80
2022-11-14T22:05:09.185Z,25.43
2022-11-14T22:07:43.468Z,24.37
2022-11-14T22:10:10.414Z,25.10
2022-11-14T22:12:37.390Z,26.40
2022-11-14T22:15:07.179Z,29.90
2022-11-14T22:17:33.961Z,26.00
2022-11-14T22:20:00.908Z,27.27
2022-11-14T22:22:27.667Z,27.87
2022-11-14T22:24:56.318Z,26.40
2022-11-14T22:27:23.098Z,26.17
2022-11-14T22:32:42.687Z,24.70
2022-11-14T22:35:16.699Z,24.40
2022-11-14T22:37:45.871Z,25.97
2022-11-14T22:42:57.732Z,24.90
2022-11-14T22:45:25.921Z,24.67
2022-11-14T22:47:56.457Z,24.97
2022-11-14T22:50:24.176Z,25.57
2022-11-14T22:52:57.160Z,24.13
2022-11-14T22:55:35.874Z,25.67
2022-11-14T22:58:05.242Z,23.53
2022-11-14T23:00:41.523Z,24.17
2022-11-14T23:03:17.606Z,25.43
2022-11-14T23:05:47.073Z,24.93
2022-11-14T23:08:27.844Z,27.90
2022-11-14T23:11:00.702Z,27.27
2022-11-14T23:13:33.283Z,28.77
2022-11-14T23:16:13.313Z,27.37
2022-11-14T23:18:40.117Z,26.10
2022-11-14T23:21:09.827Z,23.83
2022-11-14T23:23:36.732Z,22.57
2022-11-14T23:31:21.311Z,24.27
2022-11-14T23:42:14.936Z,21.50
2022-11-14T23:44:48.772Z,20.83
2022-11-14T23:50:05.568Z,20.30
2022-11-14T23:52:32.312Z,19.23
2022-11-14T23:54:59.108Z,18.67
2022-11-14T23:57:25.807Z,21.47
2022-11-14T23:59:53.039Z,19.53
